createdAt,value
2022-11-18T00:01:14.604Z,61.17
2022-11-18T00:03:42.286Z,57.40
2022-11-18T00:06:12.634Z,57.97
2022-11-18T00:08:39.132Z,56.58
2022-11-18T00:11:07.357Z,60.28
2022-11-18T00:13:52.455Z,56.55
2022-11-18T00:16:18.869Z,60.42
2022-11-18T00:18:45.336Z,63.72
2022-11-18T00:21:12.490Z,57.47
2022-11-18T00:23:39.793Z,57.42
2022-11-18T00:26:09.338Z,57.53
2022-11-18T00:28:36.201Z,57.20
2022-11-18T00:31:07.142Z,60.40
2022-11-18T00:33:34.014Z,58.90
2022-11-18T00:36:00.607Z,62.45
2022-11-18T00:38:27.090Z,58.03
2022-11-18T00:41:03.954Z,61.60
2022-11-18T00:43:31.349Z,64.43
2022-11-18T00:45:58.468Z,60.53
2022-11-18T00:48:25.445Z,69.38
2022-11-18T00:50:54.825Z,60.00
2022-11-18T00:53:22.828Z,57.93
2022-11-18T00:55:49.537Z,61.63
2022-11-18T00:58:16.119Z,61.10
2022-11-18T01:00:49.928Z,63.58
2022-11-18T01:03:16.901Z,60.65
2022-11-18T01:05:43.886Z,61.28
2022-11-18T01:08:12.195Z,64.53
2022-11-18T01:10:39.809Z,59.67
2022-11-18T01:13:20.114Z,58.95
2022-11-18T01:18:15.728Z,57.28
2022-11-18T01:20:42.298Z,56.75
2022-11-18T01:23:08.844Z,62.50
2022-11-18T01:25:37.220Z,62.35
2022-11-18T01:28:04.776Z,59.30
2022-11-18T01:30:37.105Z,64.38
2022-11-18T01:33:05.178Z,61.80
2022-11-18T01:35:36.277Z,62.88
2022-11-18T01:38:03.741Z,64.90
2022-11-18T01:40:30.670Z,65.93
2022-11-18T01:42:57.501Z,64.40
2022-11-18T01:45:26.931Z,61.55
2022-11-18T01:48:08.906Z,61.45
2022-11-18T01:50:44.555Z,64.57
2022-11-18T01:53:20.588Z,69.82
2022-11-18T01:55:50.194Z,63.72
2022-11-18T01:58:25.486Z,63.85
2022-11-18T02:00:52.487Z,65.78
2022-11-18T02:03:22.376Z,69.20
2022-11-18T02:05:50.648Z,65.25
2022-11-18T02:08:18.828Z,70.85
2022-11-18T02:10:45.244Z,64.18
2022-11-18T02:13:12.920Z,68.20
2022-11-18T02:16:05.129Z,66.88
2022-11-18T02:18:40.440Z,67.45
2022-11-18T02:21:24.815Z,64.55
2022-11-18T02:24:32.755Z,70.00
2022-11-18T02:27:20.616Z,73.03
2022-11-18T02:29:57.104Z,65.25
2022-11-18T02:32:29.698Z,68.60
2022-11-18T02:35:30.884Z,71.18
2022-11-18T02:38:02.674Z,71.38
2022-11-18T02:40:37.088Z,74.13
2022-11-18T02:43:08.983Z,70.63
2022-11-18T02:45:41.090Z,72.03
2022-11-18T02:48:11.159Z,69.05
2022-11-18T02:50:41.305Z,73.80
2022-11-18T02:53:10.595Z,71.53
2022-11-18T02:55:39.147Z,68.47
2022-11-18T02:58:06.489Z,68.60
2022-11-18T03:00:33.645Z,70.57
2022-11-18T03:03:00.412Z,67.53
2022-11-18T03:05:46.886Z,67.57
2022-11-18T03:08:19.538Z,65.20
2022-11-18T03:10:59.003Z,65.80
2022-11-18T03:13:34.993Z,69.43
2022-11-18T03:16:07.087Z,65.43
2022-11-18T03:18:41.215Z,64.13
2022-11-18T03:21:13.751Z,67.78
2022-11-18T03:23:54.945Z,69.85
2022-11-18T03:26:29.484Z,65.90
2022-11-18T03:29:02.319Z,61.38
2022-11-18T03:31:39.299Z,63.22
2022-11-18T03:34:24.015Z,63.15
2022-11-18T03:36:59.734Z,63.40
2022-11-18T03:39:31.816Z,61.20
2022-11-18T03:42:12.601Z,61.45
2022-11-18T03:44:44.612Z,65.82
2022-11-18T03:47:19.875Z,59.20
2022-11-18T03:49:52.839Z,61.38
2022-11-18T03:52:26.286Z,61.88
2022-11-18T03:54:56.523Z,63.60
2022-11-18T03:59:59.140Z,55.75
2022-11-18T04:02:28.869Z,59.92
2022-11-18T04:04:57.809Z,62.63
2022-11-18T04:07:32.494Z,60.00
2022-11-18T04:10:13.546Z,60.42
2022-11-18T04:12:52.393Z,63.83
2022-11-18T04:15:19.239Z,60.35
2022-11-18T04:17:45.721Z,65.35
2022-11-18T04:20:18.202Z,63.22
2022-11-18T04:22:44.846Z,65.90
2022-11-18T04:25:11.574Z,62.13
2022-11-18T04:27:38.356Z,63.38
2022-11-18T04:30:06.781Z,64.53
2022-11-18T04:32:33.825Z,61.92
2022-11-18T04:35:00.471Z,63.65
2022-11-18T04:37:26.956Z,59.97
2022-11-18T04:39:53.400Z,63.28
2022-11-18T04:42:19.897Z,66.45
2022-11-18T04:44:46.350Z,69.03
2022-11-18T04:47:12.754Z,62.95
2022-11-18T04:49:39.235Z,63.95
2022-11-18T04:52:06.457Z,67.57
2022-11-18T04:54:33.147Z,70.15
2022-11-18T04:57:00.051Z,72.28
2022-11-18T04:59:28.708Z,69.90
2022-11-18T05:01:56.189Z,73.15
2022-11-18T05:04:28.637Z,71.25
2022-11-18T05:06:55.092Z,68.20
2022-11-18T05:09:24.823Z,67.25
2022-11-18T05:12:12.327Z,67.60
2022-11-18T05:14:38.960Z,67.47
2022-11-18T05:17:07.752Z,70.05
2022-11-18T05:19:34.218Z,75.05
2022-11-18T05:22:00.761Z,73.88
2022-11-18T05:24:27.252Z,70.03
2022-11-18T05:26:54.818Z,72.30
2022-11-18T05:29:22.249Z,73.93
2022-11-18T05:31:49.204Z,73.32
2022-11-18T05:34:15.971Z,63.92
2022-11-18T05:36:42.408Z,69.00
2022-11-18T05:39:09.186Z,68.78
2022-11-18T05:41:54.773Z,68.00
2022-11-18T05:44:21.319Z,71.47
2022-11-18T05:46:47.730Z,73.53
2022-11-18T05:49:14.185Z,68.53
2022-11-18T05:51:40.620Z,71.80
2022-11-18T05:54:09.106Z,75.32
2022-11-18T05:56:40.729Z,69.05
2022-11-18T05:59:07.826Z,70.38
2022-11-18T06:01:49.094Z,68.70
2022-11-18T06:04:25.713Z,71.03
2022-11-18T06:06:55.734Z,72.78
2022-11-18T06:09:26.725Z,78.18
2022-11-18T06:11:56.853Z,74.13
2022-11-18T06:14:34.526Z,79.05
2022-11-18T06:17:04.576Z,72.03
2022-11-18T06:19:32.645Z,77.97
2022-11-18T06:21:59.949Z,76.40
2022-11-18T06:24:26.546Z,80.35
2022-11-18T06:26:53.764Z,79.50
2022-11-18T06:29:27.315Z,75.47
2022-11-18T06:31:57.472Z,70.38
2022-11-18T06:34:24.005Z,74.82
2022-11-18T06:36:50.438Z,71.75
2022-11-18T06:39:17.280Z,77.25
2022-11-18T06:41:43.930Z,75.43
2022-11-18T06:44:13.735Z,81.68
2022-11-18T06:46:58.759Z,79.25
2022-11-18T06:49:26.490Z,76.95
2022-11-18T06:51:53.494Z,77.75
2022-11-18T06:54:20.132Z,76.70
2022-11-18T06:56:47.136Z,79.32
2022-11-18T06:59:13.983Z,78.05
2022-11-18T07:01:41.901Z,81.50
2022-11-18T07:04:08.589Z,74.40
2022-11-18T07:06:36.108Z,77.93
2022-11-18T07:09:04.958Z,78.28
2022-11-18T07:11:31.491Z,77.60
2022-11-18T07:13:57.903Z,90.03
2022-11-18T07:16:26.724Z,80.88
2022-11-18T07:18:54.765Z,78.80
2022-11-18T07:21:26.937Z,91.72
2022-11-18T07:23:54.912Z,81.13
2022-11-18T07:26:22.015Z,82.88
2022-11-18T07:28:48.939Z,81.80
2022-11-18T07:31:17.773Z,85.30
2022-11-18T07:33:45.523Z,81.45
2022-11-18T07:36:20.955Z,80.43
2022-11-18T07:38:47.466Z,78.45
2022-11-18T07:41:16.725Z,87.35
2022-11-18T07:43:44.059Z,79.97
2022-11-18T07:46:19.409Z,88.55
2022-11-18T07:48:47.797Z,81.97
2022-11-18T07:51:16.221Z,78.90
2022-11-18T07:53:43.715Z,74.80
2022-11-18T07:56:10.895Z,76.13
2022-11-18T07:58:37.696Z,82.88
2022-11-18T08:01:08.721Z,81.57
2022-11-18T08:03:35.710Z,72.45
2022-11-18T08:06:03.307Z,75.97
2022-11-18T08:08:29.855Z,73.50
2022-11-18T08:10:57.817Z,68.53
2022-11-18T08:13:25.368Z,68.70
2022-11-18T08:15:52.316Z,68.53
2022-11-18T08:18:18.894Z,71.07
2022-11-18T08:20:45.736Z,67.93
2022-11-18T08:23:13.545Z,71.80
2022-11-18T08:25:41.107Z,66.45
2022-11-18T08:28:08.174Z,67.45
2022-11-18T08:30:34.759Z,69.38
2022-11-18T08:33:01.685Z,72.20
2022-11-18T08:35:32.300Z,68.25
2022-11-18T08:37:59.399Z,71.18
2022-11-18T08:40:26.481Z,67.50
2022-11-18T08:42:52.925Z,62.53
2022-11-18T08:45:19.383Z,64.55
2022-11-18T08:47:45.822Z,62.70
2022-11-18T08:50:12.695Z,63.53
2022-11-18T08:52:39.143Z,61.83
2022-11-18T08:55:05.834Z,62.45
2022-11-18T08:57:32.266Z,63.80
2022-11-18T08:59:58.712Z,62.63
2022-11-18T09:02:25.196Z,63.95
2022-11-18T09:04:52.583Z,60.13
2022-11-18T09:07:20.431Z,65.60
2022-11-18T09:09:47.157Z,63.55
2022-11-18T09:12:15.108Z,61.05
2022-11-18T09:17:29.559Z,62.10
2022-11-18T09:19:56.044Z,57.10
2022-11-18T09:22:22.495Z,55.83
2022-11-18T09:24:48.964Z,56.03
2022-11-18T09:27:17.500Z,55.42
2022-11-18T09:29:44.810Z,55.28
2022-11-18T09:32:11.559Z,55.17
2022-11-18T09:34:38.000Z,56.53
2022-11-18T09:37:06.822Z,59.70
2022-11-18T09:39:37.349Z,57.92
2022-11-18T09:42:22.185Z,53.15
2022-11-18T09:45:03.933Z,53.22
2022-11-18T09:47:34.605Z,52.92
2022-11-18T09:50:48.034Z,51.35
2022-11-18T09:53:09.709Z,46.10
2022-11-18T09:55:39.498Z,47.90
2022-11-18T09:58:07.507Z,47.15
2022-11-18T10:00:34.705Z,45.80
2022-11-18T10:03:03.081Z,45.83
2022-11-18T10:05:33.107Z,45.72
2022-11-18T10:08:08.649Z,43.60
2022-11-18T10:11:04.876Z,44.78
2022-11-18T10:13:49.825Z,42.25
2022-11-18T10:16:29.138Z,41.97
2022-11-18T10:19:14.278Z,40.63
2022-11-18T10:21:50.749Z,39.53
2022-11-18T10:24:24.030Z,40.67
2022-11-18T10:26:58.547Z,40.58
2022-11-18T10:29:26.089Z,39.75
2022-11-18T10:31:59.684Z,40.97
2022-11-18T10:34:29.579Z,38.17
2022-11-18T10:37:34.746Z,36.20
2022-11-18T10:40:25.592Z,35.15
2022-11-18T10:42:52.118Z,32.38
2022-11-18T10:45:21.498Z,31.67
2022-11-18T10:48:16.422Z,31.90
2022-11-18T10:50:54.779Z,30.60
2022-11-18T10:53:35.796Z,29.40
2022-11-18T10:56:08.168Z,28.83
2022-11-18T10:58:40.670Z,28.17
2022-11-18T11:01:19.241Z,29.00
2022-11-18T11:04:12.185Z,27.08
2022-11-18T11:06:39.155Z,25.67
2022-11-18T11:09:09.994Z,25.60
2022-11-18T11:11:43.240Z,25.15
2022-11-18T11:15:00.523Z,24.63
2022-11-18T11:17:36.224Z,22.75
2022-11-18T11:20:10.584Z,22.98
2022-11-18T11:22:37.009Z,23.27
2022-11-18T11:25:12.892Z,21.52
2022-11-18T11:30:36.140Z,21.85
2022-11-18T11:33:15.477Z,23.92
2022-11-18T11:36:29.907Z,21.70
2022-11-18T11:39:23.377Z,20.42
2022-11-18T11:42:06.380Z,23.38
2022-11-18T11:44:41.891Z,21.38
2022-11-18T11:47:41.014Z,25.58
2022-11-18T11:50:19.688Z,25.27
2022-11-18T11:53:13.828Z,21.13
2022-11-18T11:56:04.750Z,21.25
2022-11-18T11:58:50.670Z,22.92
2022-11-18T12:01:32.657Z,22.02
2022-11-18T12:04:27.030Z,26.75
2022-11-18T12:06:56.052Z,23.10
2022-11-18T12:09:46.105Z,22.17
2022-11-18T12:12:38.286Z,25.55
2022-11-18T12:15:16.987Z,24.70
2022-11-18T12:17:54.220Z,24.10
2022-11-18T12:20:53.754Z,25.40
2022-11-18T12:23:29.594Z,29.73
2022-11-18T12:25:58.248Z,28.80
2022-11-18T12:28:31.005Z,21.38
2022-11-18T12:31:19.433Z,25.45
2022-11-18T12:33:56.496Z,21.23
2022-11-18T12:36:35.279Z,20.90
2022-11-18T12:39:24.052Z,22.00
2022-11-18T12:42:09.619Z,21.95
2022-11-18T12:44:39.481Z,21.90
2022-11-18T12:47:08.341Z,23.27
2022-11-18T12:49:38.266Z,21.70
2022-11-18T12:52:26.498Z,24.83
2022-11-18T12:54:53.397Z,22.40
2022-11-18T12:57:22.942Z,23.42
2022-11-18T12:59:50.372Z,20.98
2022-11-18T13:02:22.232Z,21.13
2022-11-18T13:05:09.530Z,19.48
2022-11-18T13:18:35.467Z,21.80
2022-11-18T13:21:44.027Z,21.60
2022-11-18T13:24:47.474Z,22.45
2022-11-18T13:27:35.403Z,20.13
2022-11-18T13:30:08.352Z,38.28
2022-11-18T13:32:35.204Z,21.20
2022-11-18T13:35:18.521Z,21.60
2022-11-18T13:38:00.773Z,18.67
2022-11-18T13:41:37.836Z,19.83
2022-11-18T13:44:31.259Z,19.20
2022-11-18T13:47:19.984Z,21.92
2022-11-18T13:49:57.407Z,20.02
2022-11-18T13:52:53.083Z,17.77
2022-11-18T13:55:23.905Z,18.40
2022-11-18T13:58:04.353Z,18.10
2022-11-18T14:00:35.072Z,17.40
2022-11-18T14:03:27.543Z,16.33
2022-11-18T14:05:55.475Z,17.05
2022-11-18T14:08:42.642Z,17.40
2022-11-18T14:11:10.277Z,17.73
2022-11-18T14:13:48.618Z,18.42
2022-11-18T14:16:21.508Z,17.73
2022-11-18T14:18:51.846Z,16.38
2022-11-18T14:21:38.204Z,16.50
2022-11-18T14:24:05.933Z,15.85
2022-11-18T14:26:36.324Z,16.02
2022-11-18T14:29:17.642Z,16.33
2022-11-18T14:31:44.720Z,16.00
2022-11-18T14:34:26.499Z,16.27
2022-11-18T14:36:57.459Z,16.08
2022-11-18T14:39:30.220Z,15.63
2022-11-18T14:41:58.527Z,16.02
2022-11-18T14:44:28.106Z,15.43
2022-11-18T14:46:59.202Z,16.58
2022-11-18T14:49:27.333Z,16.27
2022-11-18T14:51:55.162Z,16.30
2022-11-18T14:54:26.963Z,15.45
2022-11-18T14:56:58.249Z,18.25
2022-11-18T14:59:25.520Z,16.63
2022-11-18T15:01:52.639Z,15.57
2022-11-18T15:04:20.951Z,15.45
2022-11-18T15:06:48.723Z,16.40
2022-11-18T15:09:15.649Z,15.35
2022-11-18T15:11:42.749Z,15.10
2022-11-18T15:14:09.705Z,16.83
2022-11-18T15:16:36.975Z,16.40
2022-11-18T15:19:05.926Z,16.02
2022-11-18T15:21:33.044Z,21.13
2022-11-18T15:24:00.013Z,16.20
2022-11-18T15:26:29.303Z,17.15
2022-11-18T15:28:58.007Z,17.47
2022-11-18T15:31:31.518Z,16.52
2022-11-18T15:34:03.496Z,16.17
2022-11-18T15:36:33.542Z,23.52
2022-11-18T15:39:00.424Z,22.15
2022-11-18T15:41:30.006Z,26.55
2022-11-18T15:43:58.531Z,17.25
2022-11-18T15:46:27.721Z,24.98
2022-11-18T15:48:57.434Z,22.67
2022-11-18T15:51:26.055Z,25.08
2022-11-18T15:53:53.098Z,26.95
2022-11-18T15:56:30.933Z,21.88
2022-11-18T15:59:12.086Z,24.63
2022-11-18T16:01:41.873Z,26.73
2022-11-18T16:04:10.655Z,26.48
2022-11-18T16:06:38.795Z,23.90
2022-11-18T16:09:06.623Z,22.58
2022-11-18T16:11:52.427Z,25.40
2022-11-18T16:14:20.193Z,25.13
2022-11-18T16:16:48.824Z,27.23
2022-11-18T16:19:18.094Z,32.78
2022-11-18T16:21:47.200Z,27.77
2022-11-18T16:24:22.365Z,32.72
2022-11-18T16:26:49.926Z,34.33
2022-11-18T16:29:18.658Z,31.55
2022-11-18T16:31:50.835Z,30.65
2022-11-18T16:34:22.131Z,32.58
2022-11-18T16:36:54.648Z,27.50
2022-11-18T16:39:26.707Z,33.95
2022-11-18T16:41:54.828Z,34.03
2022-11-18T16:44:21.413Z,37.35
2022-11-18T16:46:53.086Z,71.20
2022-11-18T16:49:22.364Z,40.20
2022-11-18T16:51:51.808Z,27.02
2022-11-18T16:54:20.546Z,31.23
2022-11-18T16:56:47.792Z,31.00
2022-11-18T16:59:17.199Z,22.27
2022-11-18T17:01:44.487Z,18.70
2022-11-18T17:04:11.887Z,26.92
2022-11-18T17:06:39.272Z,29.08
2022-11-18T17:09:06.227Z,32.45
2022-11-18T17:11:32.973Z,34.28
2022-11-18T17:13:59.582Z,29.35
2022-11-18T17:16:26.724Z,29.30
2022-11-18T17:18:58.268Z,30.92
2022-11-18T17:21:26.101Z,20.98
2022-11-18T17:23:52.834Z,22.40
2022-11-18T17:26:22.506Z,20.27
2022-11-18T17:28:49.121Z,19.95
2022-11-18T17:31:20.215Z,19.65
2022-11-18T17:33:48.055Z,22.02
2022-11-18T17:36:19.498Z,23.05
2022-11-18T17:38:48.078Z,18.33
2022-11-18T17:41:35.780Z,22.90
2022-11-18T17:44:05.516Z,24.98
2022-11-18T17:46:37.789Z,22.10
2022-11-18T17:49:06.887Z,25.65
2022-11-18T17:51:33.586Z,20.80
2022-11-18T17:54:00.114Z,20.17
2022-11-18T17:56:26.799Z,19.85
2022-11-18T17:58:53.323Z,20.42
2022-11-18T18:01:21.591Z,18.52
2022-11-18T18:03:48.694Z,18.50
2022-11-18T18:06:15.939Z,18.58
2022-11-18T18:08:42.881Z,21.13
2022-11-18T18:11:18.272Z,18.23
2022-11-18T18:14:03.901Z,18.13
2022-11-18T18:16:32.435Z,18.73
2022-11-18T18:19:00.357Z,20.60
2022-11-18T18:21:30.430Z,23.13
2022-11-18T18:26:26.753Z,20.67
2022-11-18T18:29:00.756Z,21.45
2022-11-18T18:31:27.659Z,25.02
2022-11-18T18:33:54.150Z,23.13
2022-11-18T18:36:21.525Z,22.52
2022-11-18T18:38:48.139Z,22.85
2022-11-18T18:41:17.989Z,19.23
2022-11-18T18:43:46.003Z,23.58
2022-11-18T18:46:31.854Z,22.73
2022-11-18T18:49:10.055Z,23.05
2022-11-18T18:51:38.157Z,22.48
2022-11-18T18:54:06.031Z,18.70
2022-11-18T18:56:33.274Z,18.17
2022-11-18T18:59:00.372Z,24.80
2022-11-18T19:01:27.851Z,21.48
2022-11-18T19:04:00.571Z,20.17
2022-11-18T19:09:18.388Z,17.35
2022-11-18T19:12:03.750Z,21.30
2022-11-18T19:14:30.317Z,19.67
2022-11-18T19:16:57.682Z,22.52
2022-11-18T19:19:44.980Z,26.45
2022-11-18T19:22:13.565Z,36.97
2022-11-18T19:24:56.475Z,33.15
2022-11-18T19:27:23.183Z,41.08
2022-11-18T19:29:49.618Z,38.28
2022-11-18T19:32:16.057Z,36.88
2022-11-18T19:34:42.779Z,37.47
2022-11-18T19:37:09.287Z,33.53
2022-11-18T19:39:35.765Z,28.63
2022-11-18T19:42:02.241Z,25.83
2022-11-18T19:44:29.210Z,25.55
2022-11-18T19:46:55.720Z,27.52
2022-11-18T19:49:22.564Z,24.10
2022-11-18T19:51:49.238Z,22.20
2022-11-18T19:54:15.703Z,23.80
2022-11-18T19:56:42.101Z,24.70
2022-11-18T19:59:08.537Z,23.15
2022-11-18T20:01:35.007Z,23.13
2022-11-18T20:04:05.731Z,22.52
2022-11-18T20:06:35.247Z,24.23
2022-11-18T20:09:02.668Z,20.67
2022-11-18T20:11:29.208Z,23.50
2022-11-18T20:13:55.658Z,20.58
2022-11-18T20:16:24.531Z,19.98
2022-11-18T20:18:57.637Z,21.15
2022-11-18T20:21:25.871Z,28.50
2022-11-18T20:23:56.083Z,20.65
2022-11-18T20:26:28.284Z,25.35
2022-11-18T20:28:57.688Z,22.95
2022-11-18T20:31:25.904Z,24.05
2022-11-18T20:33:54.126Z,23.83
2022-11-18T20:36:23.289Z,19.10
2022-11-18T20:38:51.971Z,23.83
2022-11-18T20:41:19.214Z,20.77
2022-11-18T20:43:48.669Z,24.23
2022-11-18T20:46:20.288Z,28.25
2022-11-18T20:48:47.294Z,29.42
2022-11-18T20:51:17.955Z,29.90
2022-11-18T20:53:45.161Z,29.80
2022-11-18T20:56:16.549Z,25.83
2022-11-18T20:58:43.567Z,32.88
2022-11-18T21:01:17.053Z,31.58
2022-11-18T21:03:48.909Z,29.52
2022-11-18T21:06:15.965Z,31.15
2022-11-18T21:08:42.844Z,31.98
2022-11-18T21:11:11.835Z,32.80
2022-11-18T21:13:57.791Z,29.05
2022-11-18T21:16:26.008Z,29.48
2022-11-18T21:18:52.917Z,27.25
2022-11-18T21:21:38.510Z,26.80
2022-11-18T21:24:05.479Z,25.77
2022-11-18T21:26:33.875Z,31.63
2022-11-18T21:29:02.476Z,35.38
2022-11-18T21:31:29.496Z,29.25
2022-11-18T21:33:57.099Z,35.25
2022-11-18T21:36:25.261Z,33.90
2022-11-18T21:38:52.019Z,31.75
2022-11-18T21:41:18.918Z,32.47
2022-11-18T21:46:34.845Z,32.38
2022-11-18T21:49:02.427Z,41.00
2022-11-18T21:51:31.232Z,49.28
2022-11-18T21:53:58.780Z,68.82
2022-11-18T21:56:28.278Z,53.03
2022-11-18T21:58:55.476Z,173.80
2022-11-18T22:01:26.801Z,113.88
2022-11-18T22:03:55.994Z,78.65
2022-11-18T22:06:24.470Z,75.57
2022-11-18T22:08:51.994Z,75.03
2022-11-18T22:11:20.406Z,79.35
2022-11-18T22:13:46.904Z,47.78
2022-11-18T22:16:16.559Z,41.03
2022-11-18T22:18:44.931Z,41.30
2022-11-18T22:21:17.743Z,42.92
2022-11-18T22:23:44.878Z,39.85
2022-11-18T22:26:15.312Z,46.08
2022-11-18T22:28:42.364Z,44.75
2022-11-18T22:31:15.414Z,43.15
2022-11-18T22:33:42.703Z,60.88
2022-11-18T22:36:15.448Z,92.25
2022-11-18T22:38:45.848Z,79.57
2022-11-18T22:41:34.686Z,80.40
2022-11-18T22:44:06.975Z,115.18
2022-11-18T22:46:35.395Z,105.32
2022-11-18T22:49:02.117Z,194.90
2022-11-18T22:51:28.722Z,197.70
2022-11-18T22:54:15.837Z,127.25
2022-11-18T22:56:42.016Z,115.97
2022-11-18T22:59:11.215Z,94.22
2022-11-18T23:01:37.902Z,90.57
2022-11-18T23:04:04.550Z,104.72
2022-11-18T23:06:30.992Z,107.78
2022-11-18T23:08:58.077Z,97.72
2022-11-18T23:11:43.308Z,115.47
2022-11-18T23:14:10.772Z,83.03
2022-11-18T23:16:39.884Z,100.50
2022-11-18T23:19:12.081Z,79.22
2022-11-18T23:21:38.665Z,78.82
2022-11-18T23:24:05.689Z,59.17
2022-11-18T23:26:32.183Z,50.65
2022-11-18T23:28:59.001Z,57.35
2022-11-18T23:31:30.502Z,60.15
2022-11-18T23:33:58.501Z,58.65
2022-11-18T23:36:25.422Z,44.63
2022-11-18T23:38:53.039Z,48.53
2022-11-18T23:41:20.396Z,46.42
2022-11-18T23:43:48.344Z,52.20
2022-11-18T23:46:16.902Z,53.92
2022-11-18T23:48:44.734Z,42.70
2022-11-18T23:51:20.385Z,41.10
2022-11-18T23:53:50.905Z,44.80
2022-11-18T23:56:19.132Z,44.45
2022-11-18T23:58:48.685Z,56.55
